Time;durP1;ratioP1;P1;durP2;ratioP2;P2;SDS_P1;SDS_P2;PMS_P1;PMS_P2;Temp;Humidity;BMP_temperature;BMP_pressure;BME280_temperature;BME280_humidity;BME280_pressure;Samples;Min_cycle;Max_cycle;Signal;HPM_P1;HPM_P2
2023/10/12 00:00:33;;;;;;;18.58;5.68;;;16.60;99.90;;;;;;5058638;28;20495;-83
2023/10/12 00:02:59;;;;;;;14.57;5.75;;;16.50;99.90;;;;;;5082535;28;20039;-82
2023/10/12 00:05:29;;;;;;;23.15;6.68;;;16.50;99.90;;;;;;5060040;28;20020;-82
2023/10/12 00:07:55;;;;;;;23.88;6.32;;;16.40;99.90;;;;;;5072979;28;20035;-83
2023/10/12 00:10:21;;;;;;;16.67;6.50;;;16.40;99.90;;;;;;5056845;28;20464;-82
2023/10/12 00:12:52;;;;;;;14.70;5.63;;;16.40;99.90;;;;;;5063388;28;20727;-82
2023/10/12 00:17:51;;;;;;;18.55;6.60;;;16.50;99.90;;;;;;5078032;28;20024;-82
2023/10/12 00:20:34;;;;;;;18.17;5.82;;;16.50;99.90;;;;;;5079845;28;20112;-82
2023/10/12 00:23:13;;;;;;;21.23;6.35;;;16.40;99.90;;;;;;5061121;28;20039;-82
2023/10/12 00:25:46;;;;;;;17.08;6.20;;;16.50;99.90;;;;;;5057392;28;20040;-82
2023/10/12 00:28:19;;;;;;;18.60;7.10;;;16.50;99.90;;;;;;5096732;28;20024;-83
2023/10/12 00:30:54;;;;;;;19.27;6.78;;;16.40;99.90;;;;;;5060801;28;20073;-82
2023/10/12 00:33:21;;;;;;;17.05;6.38;;;16.30;99.90;;;;;;5063417;28;20032;-82
2023/10/12 00:36:11;;;;;;;20.20;7.10;;;16.40;99.90;;;;;;5063061;28;20382;-82
2023/10/12 00:38:38;;;;;;;15.88;6.53;;;16.40;99.90;;;;;;5064126;28;20035;-83
2023/10/12 00:41:06;;;;;;;20.67;7.03;;;16.30;99.90;;;;;;5095035;28;20439;-82
2023/10/12 00:43:43;;;;;;;14.52;7.38;;;16.40;99.90;;;;;;5059221;28;20032;-82
2023/10/12 00:49:13;;;;;;;14.10;6.68;;;16.40;99.90;;;;;;5080352;28;20167;-83
2023/10/12 00:51:48;;;;;;;16.55;6.40;;;16.50;99.90;;;;;;5083752;28;20093;-83
2023/10/12 00:54:14;;;;;;;17.55;7.18;;;16.40;99.90;;;;;;5095028;28;20039;-83
2023/10/12 00:56:43;;;;;;;18.95;6.22;;;16.30;99.90;;;;;;5057504;28;20380;-83
2023/10/12 00:59:11;;;;;;;26.63;7.05;;;16.30;99.90;;;;;;5097649;28;20047;-83
2023/10/12 01:01:37;;;;;;;20.42;6.75;;;16.40;99.90;;;;;;5074187;28;20046;-83
2023/10/12 01:04:08;;;;;;;19.17;6.63;;;16.40;99.90;;;;;;5073971;28;20384;-83
2023/10/12 01:06:34;;;;;;;;;;;16.40;99.90;;;;;;5062549;28;20039;-83
2023/10/12 01:12:48;;;;;;;17.48;7.15;;;16.40;99.90;;;;;;5089484;28;20039;-82
2023/10/12 01:15:16;;;;;;;18.65;6.90;;;16.30;99.90;;;;;;5095393;28;20028;-83
2023/10/12 01:21:30;;;;;;;14.20;7.07;;;16.20;99.90;;;;;;5066787;28;20556;-83
2023/10/12 01:24:05;;;;;;;19.17;7.32;;;16.20;99.90;;;;;;5058899;28;20036;-83
2023/10/12 01:26:31;;;;;;;15.77;6.75;;;16.20;99.90;;;;;;5100226;28;20043;-83
2023/10/12 01:28:59;;;;;;;19.35;7.00;;;16.20;99.90;;;;;;5093582;28;20021;-84
2023/10/12 01:31:28;;;;;;;19.70;7.38;;;16.10;99.90;;;;;;5091551;28;20814;-83
2023/10/12 01:33:55;;;;;;;19.70;6.82;;;16.10;99.90;;;;;;5095673;28;20029;-83
2023/10/12 01:36:22;;;;;;;18.85;6.72;;;16.10;99.90;;;;;;5077453;28;20029;-83
2023/10/12 01:39:02;;;;;;;16.25;6.93;;;16.10;99.90;;;;;;5079473;28;20074;-82
2023/10/12 01:41:28;;;;;;;10.75;6.43;;;16.10;99.90;;;;;;5085190;28;20063;-83
2023/10/12 01:43:54;;;;;;;26.67;7.43;;;16.20;99.90;;;;;;5075655;28;20020;-83
2023/10/12 01:46:22;;;;;;;17.40;6.75;;;16.20;99.90;;;;;;5095983;28;20536;-83
2023/10/12 01:48:49;;;;;;;20.65;6.95;;;16.10;99.90;;;;;;5060599;28;20073;-82
2023/10/12 01:51:24;;;;;;;15.77;6.90;;;16.10;99.90;;;;;;5074654;28;20033;-83
2023/10/12 01:53:55;;;;;;;17.15;6.75;;;16.00;99.90;;;;;;5080828;28;20035;-83
2023/10/12 01:56:26;;;;;;;20.33;7.63;;;16.00;99.90;;;;;;5090107;28;20387;-83
2023/10/12 01:58:52;;;;;;;;;;;16.00;99.90;;;;;;5060930;28;20379;-83
2023/10/12 02:01:21;;;;;;;14.82;5.95;;;15.90;99.90;;;;;;5074960;28;19908;-83
2023/10/12 02:03:54;;;;;;;19.52;6.93;;;15.80;99.90;;;;;;5071461;28;20136;-83
2023/10/12 02:06:22;;;;;;;16.40;7.43;;;15.70;99.90;;;;;;5059548;28;20036;-83
2023/10/12 02:08:52;;;;;;;17.10;7.60;;;15.70;99.90;;;;;;5097173;28;20471;-83
2023/10/12 02:13:54;;;;;;;17.00;7.55;;;15.70;99.90;;;;;;5084319;28;20020;-82
2023/10/12 02:16:24;;;;;;;21.30;7.63;;;15.60;99.90;;;;;;5059130;28;20032;-83
2023/10/12 02:18:53;;;;;;;16.73;7.57;;;15.50;99.90;;;;;;5075148;28;20028;-82
2023/10/12 02:21:22;;;;;;;20.08;6.43;;;15.40;99.90;;;;;;5061843;28;20028;-83
2023/10/12 02:24:12;;;;;;;20.17;6.82;;;15.40;99.90;;;;;;5058510;28;20502;-82
2023/10/12 02:29:17;;;;;;;16.17;6.82;;;15.30;99.90;;;;;;5077650;28;20028;-83
2023/10/12 02:34:34;;;;;;;22.27;7.13;;;15.40;99.90;;;;;;5082785;28;20024;-83
2023/10/12 02:37:00;;;;;;;21.38;7.00;;;15.30;99.90;;;;;;5061896;28;20032;-83
2023/10/12 02:39:38;;;;;;;14.55;7.05;;;15.40;99.90;;;;;;5060492;28;20502;-83
2023/10/12 02:47:21;;;;;;;26.45;7.05;;;15.40;99.90;;;;;;5079560;28;20379;-83
2023/10/12 02:49:47;;;;;;;13.98;6.65;;;15.30;99.90;;;;;;5060944;28;20080;-83
2023/10/12 02:52:14;;;;;;;13.93;6.32;;;15.20;99.90;;;;;;5064184;28;20032;-83
2023/10/12 02:54:49;;;;;;;13.02;6.35;;;15.20;99.90;;;;;;5056989;28;20059;-83
2023/10/12 02:57:22;;;;;;;23.77;6.50;;;15.20;99.90;;;;;;5063615;28;20039;-83
2023/10/12 02:59:57;;;;;;;14.77;6.55;;;15.10;99.90;;;;;;5077392;28;20031;-83
2023/10/12 03:02:34;;;;;;;15.70;7.18;;;15.10;99.90;;;;;;5075380;28;20037;-83
2023/10/12 03:05:06;;;;;;;19.88;7.78;;;15.10;99.90;;;;;;5066202;28;20391;-83
2023/10/12 03:07:36;;;;;;;23.45;6.80;;;15.00;99.90;;;;;;5091048;28;20392;-83
2023/10/12 03:10:07;;;;;;;22.98;8.00;;;15.00;99.90;;;;;;5065641;28;20027;-83
2023/10/12 03:12:43;;;;;;;20.95;8.38;;;15.00;99.90;;;;;;5074695;28;20582;-83
2023/10/12 03:15:12;;;;;;;18.85;7.13;;;14.90;99.90;;;;;;5063830;28;20055;-83
2023/10/12 03:17:42;;;;;;;19.63;7.40;;;14.80;99.90;;;;;;5088407;28;20109;-83
2023/10/12 03:20:22;;;;;;;17.67;7.45;;;14.80;99.90;;;;;;5094608;28;20037;-83
2023/10/12 03:22:52;;;;;;;14.05;6.15;;;14.80;99.90;;;;;;5081721;28;20028;-83
2023/10/12 03:25:20;;;;;;;17.95;6.70;;;14.80;99.90;;;;;;5093955;28;20033;-82
2023/10/12 03:27:53;;;;;;;22.58;7.70;;;14.70;99.90;;;;;;5060742;28;20025;-82
2023/10/12 03:30:34;;;;;;;15.52;6.90;;;14.50;99.90;;;;;;5059830;28;20032;-82
2023/10/12 03:33:09;;;;;;;22.87;7.37;;;14.40;99.90;;;;;;5068900;28;20417;-83
2023/10/12 03:35:57;;;;;;;16.20;7.13;;;14.30;99.90;;;;;;5071058;28;20364;-83
2023/10/12 03:38:21;;;;;;;19.08;7.38;;;14.20;99.90;;;;;;5075976;28;20564;-83
2023/10/12 03:40:50;;;;;;;18.88;7.07;;;14.20;99.90;;;;;;5106947;27;20383;-83
2023/10/12 03:43:26;;;;;;;17.95;7.57;;;14.10;99.90;;;;;;5076082;28;20033;-83
2023/10/12 03:46:07;;;;;;;16.23;7.20;;;13.90;99.90;;;;;;5102651;27;20029;-82
2023/10/12 03:48:49;;;;;;;18.25;7.15;;;13.80;99.90;;;;;;5069911;28;20056;-83
2023/10/12 03:53:56;;;;;;;18.27;7.78;;;13.40;99.90;;;;;;5066688;28;20120;-83
2023/10/12 03:56:23;;;;;;;22.90;7.97;;;13.30;99.90;;;;;;5072660;28;20032;-83
2023/10/12 03:58:58;;;;;;;18.15;7.47;;;13.30;99.90;;;;;;5098716;28;20025;-83
2023/10/12 04:01:36;;;;;;;18.05;7.07;;;13.40;99.90;;;;;;5073856;28;20388;-84
2023/10/12 04:04:34;;;;;;;13.93;7.22;;;13.60;99.90;;;;;;5076787;28;20032;-83
2023/10/12 04:09:43;;;;;;;20.23;7.30;;;14.00;99.90;;;;;;5076568;28;20025;-83
2023/10/12 04:14:46;;;;;;;18.60;7.15;;;14.20;99.90;;;;;;5074653;28;20078;-83
2023/10/12 04:23:15;;;;;;;15.30;6.75;;;14.40;99.90;;;;;;5085140;28;20030;-83
2023/10/12 04:28:03;;;;;;;18.98;7.15;;;14.50;99.90;;;;;;5080058;28;20463;-83
2023/10/12 04:31:20;;;;;;;13.48;6.63;;;14.40;99.90;;;;;;5068283;28;20039;-83
2023/10/12 04:33:24;;;;;;;18.88;7.60;;;14.40;99.90;;;;;;5077649;28;20024;-83
2023/10/12 04:38:23;;;;;;;20.60;6.82;;;14.30;99.90;;;;;;5112885;28;20028;-83
2023/10/12 04:43:38;;;;;;;17.90;7.43;;;14.20;99.90;;;;;;5084911;28;20025;-83
2023/10/12 04:48:41;;;;;;;21.40;6.90;;;14.20;99.90;;;;;;5111366;27;20817;-83
2023/10/12 04:51:18;;;;;;;22.85;6.50;;;14.10;99.90;;;;;;5083972;28;20143;-83
2023/10/12 04:53:57;;;;;;;18.00;6.50;;;14.20;99.90;;;;;;5079333;28;20080;-83
2023/10/12 04:56:26;;;;;;;18.40;7.13;;;14.40;99.90;;;;;;5072118;28;20151;-83
2023/10/12 04:59:14;;;;;;;16.15;7.63;;;14.40;99.90;;;;;;5098163;28;20029;-83
2023/10/12 05:01:41;;;;;;;20.45;7.35;;;14.50;99.90;;;;;;5080613;28;20058;-83
2023/10/12 05:04:18;;;;;;;16.52;6.60;;;14.50;99.90;;;;;;5075462;28;20474;-83
2023/10/12 05:06:56;;;;;;;12.75;6.40;;;14.50;99.90;;;;;;5080519;28;20136;-83
2023/10/12 05:09:22;;;;;;;18.02;6.40;;;14.40;99.90;;;;;;5076541;28;20033;-83
2023/10/12 05:11:47;;;;;;;15.35;7.13;;;14.50;99.90;;;;;;5067530;28;20627;-83
2023/10/12 05:14:16;;;;;;;16.35;6.63;;;14.50;99.90;;;;;;5081065;28;20538;-83
2023/10/12 05:16:45;;;;;;;16.67;7.50;;;14.40;99.90;;;;;;5074467;28;20036;-83
2023/10/12 05:19:12;;;;;;;13.23;6.15;;;14.60;99.90;;;;;;5079227;28;20043;-83
2023/10/12 05:21:39;;;;;;;11.73;6.47;;;14.70;99.90;;;;;;5094833;28;20386;-83
2023/10/12 05:24:05;;;;;;;24.70;6.85;;;14.60;99.90;;;;;;5079193;28;20074;-83
2023/10/12 05:26:31;;;;;;;20.00;8.15;;;14.50;99.90;;;;;;5111921;27;20039;-83
2023/10/12 05:31:48;;;;;;;22.38;6.85;;;14.40;99.90;;;;;;5071692;28;20574;-83
2023/10/12 05:39:52;;;;;;;14.15;6.43;;;14.40;99.90;;;;;;5067366;28;20032;-83
2023/10/12 05:42:25;;;;;;;18.67;6.43;;;14.50;99.90;;;;;;5067482;28;20024;-83
2023/10/12 05:44:53;;;;;;;18.08;7.20;;;14.50;99.90;;;;;;5057682;28;20475;-83
2023/10/12 05:47:29;;;;;;;21.05;7.50;;;14.40;99.90;;;;;;5062815;28;20028;-84
2023/10/12 05:49:57;;;;;;;19.88;7.00;;;14.40;99.90;;;;;;5087260;28;20676;-83
2023/10/12 05:52:24;;;;;;;16.13;6.82;;;14.30;99.90;;;;;;5082904;28;20506;-83
2023/10/12 05:54:58;;;;;;;19.02;6.50;;;14.30;99.90;;;;;;5092017;28;20029;-83
2023/10/12 05:57:29;;;;;;;15.15;6.90;;;14.30;99.90;;;;;;5092919;28;20036;-84
2023/10/12 05:59:58;;;;;;;12.85;6.07;;;14.20;99.90;;;;;;5076298;28;20360;-83
2023/10/12 06:02:26;;;;;;;20.33;7.05;;;14.20;99.90;;;;;;5071832;28;20135;-83
2023/10/12 06:04:52;;;;;;;14.40;7.15;;;14.20;99.90;;;;;;5070446;28;20040;-83
2023/10/12 06:07:17;;;;;;;16.40;7.05;;;14.20;99.90;;;;;;5077835;28;20055;-84
2023/10/12 06:09:43;;;;;;;17.17;7.20;;;14.20;99.90;;;;;;5108061;28;20024;-83
2023/10/12 06:12:12;;;;;;;32.22;7.90;;;14.20;99.90;;;;;;5055077;28;20032;-82
2023/10/12 06:14:39;;;;;;;20.75;7.78;;;14.20;99.90;;;;;;5071858;28;20029;-83
2023/10/12 06:17:06;;;;;;;16.20;6.40;;;14.30;99.90;;;;;;5055433;28;20041;-83
2023/10/12 06:19:35;;;;;;;17.60;7.20;;;14.40;99.90;;;;;;5081065;28;20067;-83
2023/10/12 06:22:13;;;;;;;20.20;7.85;;;14.60;99.90;;;;;;5062679;28;20459;-84
2023/10/12 06:24:44;;;;;;;17.02;7.05;;;14.80;99.90;;;;;;5077646;28;20108;-83
2023/10/12 06:29:54;;;;;;;17.02;7.00;;;15.10;99.90;;;;;;5075048;28;20035;-83
2023/10/12 06:32:32;;;;;;;18.30;7.03;;;15.20;99.90;;;;;;5055958;28;20288;-83
2023/10/12 06:35:13;;;;;;;17.17;6.45;;;15.30;99.90;;;;;;5063476;28;20084;-83
2023/10/12 06:45:51;;;;;;;13.18;6.40;;;15.40;99.90;;;;;;5075065;28;20036;-83
2023/10/12 06:51:03;;;;;;;18.20;8.02;;;15.40;99.90;;;;;;5076523;28;20020;-83
2023/10/12 06:53:34;;;;;;;19.10;8.70;;;15.40;99.90;;;;;;5091351;28;20388;-83
2023/10/12 06:59:10;;;;;;;17.42;8.25;;;15.60;99.90;;;;;;5071631;28;20090;-83
2023/10/12 07:04:13;;;;;;;22.67;7.05;;;15.90;99.90;;;;;;5077031;28;20062;-83
2023/10/12 07:09:50;;;;;;;17.92;7.28;;;16.10;99.90;;;;;;5069201;28;20032;-83
2023/10/12 07:12:19;;;;;;;18.60;6.68;;;16.20;99.90;;;;;;5078544;28;20040;-83
2023/10/12 07:14:46;;;;;;;18.63;6.45;;;16.20;99.90;;;;;;5076801;28;20028;-83
2023/10/12 07:17:16;;;;;;;23.65;7.45;;;16.30;99.90;;;;;;5073088;28;20024;-83
2023/10/12 07:19:53;;;;;;;23.77;7.10;;;16.40;99.90;;;;;;5072619;28;20043;-83
2023/10/12 07:22:20;;;;;;;18.80;7.63;;;16.40;99.90;;;;;;5065282;28;20091;-84
2023/10/12 07:24:53;;;;;;;14.07;6.05;;;16.40;99.90;;;;;;5071208;28;20048;-83
2023/10/12 07:27:23;;;;;;;23.05;7.07;;;16.50;99.90;;;;;;5087278;28;20108;-83
2023/10/12 07:30:10;;;;;;;24.40;6.32;;;16.50;99.90;;;;;;5074340;28;20127;-83
2023/10/12 07:32:40;;;;;;;22.17;7.38;;;16.50;99.90;;;;;;5070810;28;20021;-84
2023/10/12 07:35:11;;;;;;;27.02;7.00;;;16.50;99.90;;;;;;5053622;28;20017;-83
2023/10/12 07:37:42;;;;;;;17.15;7.10;;;16.60;99.90;;;;;;5050921;28;20060;-83
2023/10/12 07:40:19;;;;;;;16.90;6.90;;;16.60;99.90;;;;;;5070924;28;20032;-83
2023/10/12 07:42:48;;;;;;;14.55;6.85;;;16.70;99.90;;;;;;5066437;28;20025;-83
2023/10/12 07:45:18;;;;;;;13.02;6.88;;;16.80;99.90;;;;;;5067711;28;20059;-83
2023/10/12 07:47:58;;;;;;;32.72;7.10;;;16.90;99.90;;;;;;5074887;28;20035;-83
2023/10/12 07:50:30;;;;;;;20.70;7.40;;;17.00;99.90;;;;;;5086960;28;20048;-83
2023/10/12 07:53:07;;;;;;;23.25;7.47;;;17.10;99.90;;;;;;5054294;28;20082;-84
2023/10/12 07:55:41;;;;;;;18.60;7.53;;;17.30;99.90;;;;;;5082233;28;20043;-82
2023/10/12 07:58:18;;;;;;;21.60;7.63;;;17.40;99.90;;;;;;5073671;28;20059;-83
2023/10/12 08:00:51;;;;;;;21.13;7.53;;;17.40;99.90;;;;;;5072953;28;20051;-84
2023/10/12 08:03:19;;;;;;;19.75;6.22;;;17.50;99.90;;;;;;5098884;28;20166;-84
2023/10/12 08:06:07;;;;;;;12.40;6.35;;;17.50;99.90;;;;;;5061565;28;20031;-84
2023/10/12 08:08:33;;;;;;;23.77;6.72;;;17.60;99.90;;;;;;5076060;28;20035;-83
2023/10/12 08:11:00;;;;;;;18.27;6.20;;;17.70;99.90;;;;;;5054387;28;21387;-84
2023/10/12 08:13:26;;;;;;;16.38;7.47;;;17.80;99.90;;;;;;5057296;28;20054;-84
2023/10/12 08:23:49;;;;;;;18.63;6.85;;;17.80;99.90;;;;;;5077438;28;20510;-84
2023/10/12 08:26:33;;;;;;;12.40;6.35;;;17.80;99.90;;;;;;5061719;28;20040;-84
2023/10/12 08:28:59;;;;;;;18.88;7.18;;;17.80;99.90;;;;;;5060596;28;20035;-84
2023/10/12 08:31:28;;;;;;;20.17;7.35;;;17.90;99.90;;;;;;5096253;28;20020;-84
2023/10/12 08:34:41;;;;;;;18.45;6.95;;;17.90;99.90;;;;;;5095720;28;20032;-84
2023/10/12 08:39:37;;;;;;;17.35;6.80;;;18.00;99.90;;;;;;5101205;27;20033;-84
2023/10/12 08:44:51;;;;;;;14.02;6.80;;;18.10;99.90;;;;;;5077920;28;20024;-84
2023/10/12 08:52:30;;;;;;;13.68;6.60;;;18.40;99.90;;;;;;5079560;28;20031;-84
2023/10/12 08:57:43;;;;;;;16.27;7.25;;;18.80;99.90;;;;;;5076890;28;20036;-84
2023/10/12 09:00:39;;;;;;;13.35;6.68;;;18.90;99.90;;;;;;5063197;28;20039;-84
2023/10/12 09:05:54;;;;;;;14.88;6.40;;;19.30;99.90;;;;;;5064826;28;20041;-84
2023/10/12 09:11:02;;;;;;;23.90;7.55;;;19.20;99.90;;;;;;5070812;28;20032;-84
2023/10/12 09:13:34;;;;;;;19.35;7.00;;;19.20;99.90;;;;;;5068627;28;20475;-84
2023/10/12 09:16:11;;;;;;;14.40;7.28;;;19.40;99.90;;;;;;5053252;28;20379;-84
2023/10/12 09:18:44;;;;;;;19.17;7.18;;;19.70;99.90;;;;;;5071240;28;20541;-85
2023/10/12 09:25:26;;;;;;;13.93;6.82;;;19.90;99.90;;;;;;5071092;28;20043;-84
2023/10/12 09:27:55;;;;;;;18.10;7.63;;;20.80;99.90;;;;;;5071256;28;20497;-84
2023/10/12 09:30:25;;;;;;;16.27;7.05;;;21.50;99.90;;;;;;5054503;28;20075;-85
2023/10/12 09:33:05;;;;;;;20.58;6.53;;;21.60;99.90;;;;;;5087664;28;20016;-84
2023/10/12 09:35:40;;;;;;;17.27;6.53;;;21.80;99.90;;;;;;5054640;28;20032;-84
2023/10/12 09:38:06;;;;;;;14.02;7.15;;;21.70;99.90;;;;;;5069401;28;20495;-84
2023/10/12 09:40:42;;;;;;;14.85;7.15;;;21.70;99.90;;;;;;5070769;28;20029;-84
2023/10/12 09:43:12;;;;;;;18.20;6.70;;;21.70;99.90;;;;;;5071790;28;20037;-84
2023/10/12 09:45:45;;;;;;;14.50;7.35;;;21.60;99.90;;;;;;5058558;28;20036;-84
2023/10/12 09:48:19;;;;;;;16.33;7.53;;;21.50;99.90;;;;;;5091578;28;20029;-84
2023/10/12 09:50:50;;;;;;;14.07;7.50;;;21.30;99.90;;;;;;5070929;28;20383;-84
2023/10/12 09:53:24;;;;;;;16.10;7.00;;;21.10;99.90;;;;;;5071816;28;20107;-84
2023/10/12 09:56:03;;;;;;;16.63;7.38;;;20.60;99.90;;;;;;5073568;28;20036;-84
2023/10/12 09:58:33;;;;;;;17.25;7.82;;;20.20;99.90;;;;;;5057995;28;20082;-86
2023/10/12 10:01:01;;;;;;;19.35;7.65;;;20.10;99.90;;;;;;5057905;28;20024;-84
2023/10/12 10:03:47;;;;;;;12.63;7.07;;;20.00;99.90;;;;;;5060262;28;20380;-83
2023/10/12 10:06:38;;;;;;;23.80;7.63;;;20.10;99.90;;;;;;5091151;28;20025;-84
2023/10/12 10:09:37;;;;;;;16.38;7.72;;;19.90;99.90;;;;;;5090657;28;20029;-84
2023/10/12 10:12:05;;;;;;;18.02;7.55;;;20.00;99.90;;;;;;5072770;28;20025;-83
2023/10/12 10:14:34;;;;;;;15.73;7.90;;;20.10;99.90;;;;;;5050900;28;20047;-83
2023/10/12 10:17:01;;;;;;;23.52;8.82;;;19.80;99.90;;;;;;5075293;28;20029;-84
2023/10/12 10:19:30;;;;;;;19.23;7.82;;;19.70;99.90;;;;;;5069210;28;20152;-85
2023/10/12 10:22:08;;;;;;;26.55;8.25;;;19.50;99.90;;;;;;5058058;28;20494;-84
2023/10/12 10:24:46;;;;;;;23.75;7.93;;;19.50;99.90;;;;;;5084218;28;20028;-84
2023/10/12 10:27:16;;;;;;;22.52;8.18;;;19.40;99.90;;;;;;5077272;28;20032;-84
2023/10/12 10:29:53;;;;;;;17.92;7.78;;;19.50;99.90;;;;;;5096292;28;20093;-84
2023/10/12 10:32:38;;;;;;;18.25;7.97;;;19.70;99.90;;;;;;5062059;28;20032;-84
2023/10/12 10:35:18;;;;;;;17.60;9.10;;;19.90;99.90;;;;;;5094907;28;20430;-84
2023/10/12 10:37:58;;;;;;;15.35;8.20;;;19.90;99.90;;;;;;5086769;28;20085;-84
2023/10/12 10:40:44;;;;;;;23.30;8.00;;;20.00;99.90;;;;;;5090651;28;20040;-83
2023/10/12 10:43:18;;;;;;;21.27;8.80;;;20.00;99.90;;;;;;5094680;28;20031;-84
2023/10/12 10:45:56;;;;;;;20.80;9.07;;;20.10;99.90;;;;;;5084346;28;20027;-83
2023/10/12 10:48:27;;;;;;;27.88;8.02;;;20.10;99.90;;;;;;5105549;27;20008;-84
2023/10/12 10:50:53;;;;;;;16.85;7.82;;;19.90;99.90;;;;;;5103758;28;20020;-84
2023/10/12 10:53:20;;;;;;;21.75;8.60;;;19.80;99.90;;;;;;5078358;28;20028;-84
2023/10/12 10:55:50;;;;;;;22.20;8.60;;;19.70;99.90;;;;;;5080399;28;20103;-83
2023/10/12 10:58:41;;;;;;;20.73;8.13;;;19.80;99.90;;;;;;5082041;28;20032;-84
2023/10/12 11:01:12;;;;;;;23.30;8.30;;;19.70;99.90;;;;;;5079420;28;20071;-84
2023/10/12 11:03:39;;;;;;;14.95;7.90;;;19.60;99.90;;;;;;5068712;28;20039;-84
2023/10/12 11:06:21;;;;;;;11.73;7.05;;;19.90;99.90;;;;;;5077779;28;20028;-84
2023/10/12 11:09:14;;;;;;;15.02;7.55;;;20.20;99.90;;;;;;5097587;28;20364;-84
2023/10/12 11:11:48;;;;;;;18.15;8.10;;;20.00;99.90;;;;;;5079958;28;20586;-83
2023/10/12 11:14:17;;;;;;;22.63;8.93;;;19.80;99.90;;;;;;5078338;28;20025;-84
2023/10/12 11:16:47;;;;;;;20.00;9.02;;;19.80;99.90;;;;;;5080719;28;20017;-84
2023/10/12 11:19:13;;;;;;;23.08;7.78;;;19.50;99.90;;;;;;5063717;28;20067;-84
2023/10/12 11:21:46;;;;;;;16.35;8.35;;;19.40;99.90;;;;;;5094712;28;20025;-84
2023/10/12 11:24:14;;;;;;;25.50;8.68;;;19.20;99.90;;;;;;5112346;27;20118;-83
2023/10/12 11:26:51;;;;;;;18.08;9.52;;;19.20;99.90;;;;;;5079573;28;20028;-83
2023/10/12 11:29:17;;;;;;;24.60;8.88;;;19.10;99.90;;;;;;5083126;28;20028;-83
2023/10/12 11:31:46;;;;;;;18.08;7.65;;;19.00;99.90;;;;;;5079278;28;20043;-84
2023/10/12 11:34:23;;;;;;;17.80;8.80;;;19.00;99.90;;;;;;5060570;28;20024;-83
2023/10/12 11:36:57;;;;;;;18.35;8.93;;;18.90;99.90;;;;;;5063651;28;20069;-83
2023/10/12 11:39:28;;;;;;;27.33;9.52;;;18.70;99.90;;;;;;5078544;28;20531;-83
2023/10/12 11:42:06;;;;;;;21.45;9.55;;;18.70;99.90;;;;;;5066696;28;20729;-83
2023/10/12 11:44:36;;;;;;;19.50;8.80;;;18.60;99.90;;;;;;5096411;28;20501;-83
2023/10/12 11:47:07;;;;;;;19.40;8.90;;;18.60;99.90;;;;;;5068259;28;20032;-83
2023/10/12 11:49:57;;;;;;;23.42;8.85;;;18.50;99.90;;;;;;5063293;28;20824;-83
2023/10/12 11:52:33;;;;;;;19.17;9.00;;;18.40;99.90;;;;;;5060304;28;20368;-83
2023/10/12 11:55:06;;;;;;;19.92;8.60;;;18.10;99.90;;;;;;5081772;28;20021;-83
2023/10/12 11:57:41;;;;;;;24.58;9.95;;;17.90;99.90;;;;;;5067640;28;20033;-84
2023/10/12 12:03:08;;;;;;;;;;;17.80;99.90;;;;;;5015961;28;20037;-83
2023/10/12 12:05:36;;;;;;;21.38;11.20;;;17.50;99.90;;;;;;5014954;28;19917;-83
2023/10/12 12:08:14;;;;;;;18.95;10.02;;;17.30;99.90;;;;;;5016088;28;20026;-84
2023/10/12 12:13:20;;;;;;;21.30;11.15;;;17.10;99.90;;;;;;5078965;28;20035;-83
2023/10/12 12:15:47;;;;;;;19.13;10.75;;;17.20;99.90;;;;;;5063516;28;20060;-83
2023/10/12 12:18:18;;;;;;;18.95;9.50;;;17.10;99.90;;;;;;5063476;28;20442;-84
2023/10/12 12:20:49;;;;;;;22.05;10.10;;;17.10;99.90;;;;;;5081809;28;20108;-83
2023/10/12 12:23:16;;;;;;;21.60;11.02;;;16.90;99.90;;;;;;5064407;28;20028;-83
2023/10/12 12:25:42;;;;;;;18.98;10.48;;;16.90;99.90;;;;;;5075451;28;20027;-83
2023/10/12 12:28:15;;;;;;;27.30;10.73;;;16.90;99.90;;;;;;5067025;28;20028;-83
2023/10/12 12:30:52;;;;;;;29.48;11.60;;;16.90;99.90;;;;;;5061338;28;20048;-83
2023/10/12 12:33:18;;;;;;;26.67;11.57;;;16.70;99.90;;;;;;5058026;28;20025;-83
2023/10/12 12:35:48;;;;;;;25.83;11.60;;;16.60;99.90;;;;;;5063824;28;20035;-83
2023/10/12 12:39:21;;;;;;;22.60;11.40;;;16.50;99.90;;;;;;5059483;28;20029;-83
2023/10/12 12:41:18;;;;;;;23.63;11.20;;;16.30;99.90;;;;;;5071258;28;20063;-83
2023/10/12 12:43:50;;;;;;;24.08;11.55;;;16.10;99.90;;;;;;5079419;28;20031;-83
2023/10/12 12:46:17;;;;;;;31.10;13.07;;;16.00;99.90;;;;;;5058252;28;20131;-84
2023/10/12 12:48:48;;;;;;;28.58;12.93;;;16.00;99.90;;;;;;5062301;28;20020;-83
2023/10/12 12:51:17;;;;;;;;;;;15.80;99.90;;;;;;5059948;28;20124;-84
2023/10/12 12:53:46;;;;;;;28.27;13.13;;;15.70;99.90;;;;;;5065199;28;19915;-84
2023/10/12 12:56:15;;;;;;;28.88;12.60;;;15.50;99.90;;;;;;5060956;28;20394;-84
2023/10/12 12:58:49;;;;;;;24.67;12.65;;;15.40;99.90;;;;;;5061511;28;20803;-84
2023/10/12 13:01:23;;;;;;;24.27;12.25;;;15.40;99.90;;;;;;5075231;28;20040;-83
2023/10/12 13:03:52;;;;;;;31.25;13.50;;;15.30;99.90;;;;;;5067791;28;20056;-83
2023/10/12 13:06:19;;;;;;;26.08;12.02;;;15.30;99.90;;;;;;5078456;28;20035;-84
2023/10/12 13:08:45;;;;;;;20.90;12.15;;;15.20;99.90;;;;;;5115787;27;20024;-83
2023/10/12 13:11:11;;;;;;;38.47;13.30;;;15.20;99.90;;;;;;5079305;28;20089;-84
2023/10/12 13:13:39;;;;;;;27.63;12.82;;;15.20;99.90;;;;;;5059303;28;20020;-83
2023/10/12 13:16:05;;;;;;;24.77;12.68;;;15.20;99.90;;;;;;5063812;28;20028;-84
2023/10/12 13:18:32;;;;;;;27.00;13.02;;;15.20;99.90;;;;;;5060745;28;20105;-83
2023/10/12 13:21:17;;;;;;;32.15;12.80;;;15.20;99.90;;;;;;5057591;28;20016;-83
2023/10/12 13:23:44;;;;;;;30.33;12.68;;;15.10;99.90;;;;;;5078364;28;20032;-84
2023/10/12 13:26:12;;;;;;;26.48;14.57;;;15.10;99.90;;;;;;5077707;28;20391;-83
2023/10/12 13:28:41;;;;;;;26.55;12.50;;;15.00;99.90;;;;;;5081532;28;20044;-83
2023/10/12 13:31:10;;;;;;;29.15;12.98;;;15.00;99.90;;;;;;5063161;28;20368;-84
2023/10/12 13:33:37;;;;;;;26.27;13.07;;;15.00;99.90;;;;;;5071805;28;20375;-83
2023/10/12 13:36:04;;;;;;;24.67;12.75;;;14.90;99.90;;;;;;5081992;28;20044;-83
2023/10/12 13:38:33;;;;;;;26.75;13.10;;;14.90;99.90;;;;;;5074543;28;20622;-83
2023/10/12 13:41:01;;;;;;;24.40;13.65;;;14.90;99.90;;;;;;5067275;28;20422;-83
2023/10/12 13:43:30;;;;;;;24.52;12.85;;;14.80;99.90;;;;;;5059614;28;20036;-84
2023/10/12 13:45:58;;;;;;;30.25;13.65;;;14.80;99.90;;;;;;5061411;28;20028;-84
2023/10/12 13:48:27;;;;;;;31.67;14.15;;;14.70;99.90;;;;;;5059713;28;20033;-83
2023/10/12 13:51:12;;;;;;;32.45;15.43;;;14.70;99.90;;;;;;5062464;28;20025;-84
2023/10/12 13:53:38;;;;;;;28.88;15.38;;;14.70;99.90;;;;;;5060674;28;20116;-83
2023/10/12 13:56:07;;;;;;;37.05;13.35;;;14.70;99.90;;;;;;5057415;28;20066;-83
2023/10/12 13:58:35;;;;;;;31.40;13.93;;;14.70;99.90;;;;;;5079127;28;20036;-83
2023/10/12 14:01:03;;;;;;;38.63;15.45;;;14.70;99.90;;;;;;5059454;28;20036;-83
2023/10/12 14:03:34;;;;;;;40.47;16.42;;;14.60;99.90;;;;;;5057188;28;20605;-83
2023/10/12 14:06:01;;;;;;;35.65;16.58;;;14.50;99.90;;;;;;5060472;28;20036;-83
2023/10/12 14:08:28;;;;;;;32.00;16.00;;;14.50;99.90;;;;;;5076418;28;20032;-83
2023/10/12 14:11:33;;;;;;;27.42;14.82;;;14.40;99.90;;;;;;5061724;28;20400;-83
2023/10/12 14:14:02;;;;;;;27.33;15.05;;;14.40;99.90;;;;;;4949507;28;20107;-83
2023/10/12 14:16:27;;;;;;;32.85;15.98;;;14.40;99.90;;;;;;4970464;28;20114;-83
2023/10/12 14:18:54;;;;;;;23.48;14.00;;;14.40;99.90;;;;;;5009937;28;20132;-83
2023/10/12 14:21:20;;;;;;;27.02;14.43;;;14.40;99.90;;;;;;5059670;28;20081;-83
2023/10/12 14:23:46;;;;;;;31.98;14.88;;;14.50;99.90;;;;;;5078570;28;20028;-82
2023/10/12 14:26:22;;;;;;;25.83;14.63;;;14.40;99.90;;;;;;5078362;28;20036;-83
2023/10/12 14:28:50;;;;;;;30.67;16.20;;;14.40;99.90;;;;;;5072464;28;20028;-84
2023/10/12 14:31:16;;;;;;;26.67;16.38;;;14.40;99.90;;;;;;5068413;28;20032;-83
2023/10/12 14:33:45;;;;;;;28.00;17.33;;;14.50;99.90;;;;;;5059749;28;20032;-83
2023/10/12 14:36:11;;;;;;;32.58;18.30;;;14.50;99.90;;;;;;5069872;28;20032;-83
2023/10/12 14:38:42;;;;;;;38.58;19.85;;;14.60;99.90;;;;;;5062142;28;20035;-83
2023/10/12 14:41:10;;;;;;;48.30;17.63;;;14.70;99.90;;;;;;5063483;28;20066;-83
2023/10/12 14:43:36;;;;;;;26.95;15.50;;;14.70;99.90;;;;;;5080488;28;20037;-84
2023/10/12 14:46:04;;;;;;;34.45;17.52;;;14.80;99.90;;;;;;5065598;28;20124;-84
2023/10/12 14:48:30;;;;;;;193.95;77.35;;;14.70;99.90;;;;;;5079909;28;20078;-83
2023/10/12 14:51:48;;;;;;;123.57;55.10;;;14.60;99.90;;;;;;5060621;28;20021;-83
2023/10/12 14:53:56;;;;;;;91.47;43.17;;;14.50;99.90;;;;;;5067054;28;20054;-82
2023/10/12 14:56:34;;;;;;;34.25;18.10;;;14.40;99.90;;;;;;5078690;28;20094;-83